Latest Coastal Weather Observations for Eucla

IDS60701

Issued at 11:55 am CST Thursday 24 April 2014 (issued every 10 minutes, with the page automatically refreshed every 10 minutes)

About coastal observations | Map of coastal stations | Coastal observations for SA | Marine services | Other Formats
Station Details ID: 011003 Name: EUCLA Lat: -31.68 Lon: 128.90 Height: 93.1 m
Data from the previous 72 hours. | See also: Recent months at Eucla
Date/Time
CST
Temp

°C
Wind Pressure Rain
since 9am
mm
Weather Cloud Vis
km
Sea
Height
m
Swell
Dir
 
Speed
knots
Gust
knots
hPa Trend Height
m
Period
s
Dir
24/11:30am 22.3 ENE 8 11 1018.7 - 0.0 - - - - - - -
24/11:00am 21.7 ENE 7 10 1019.4 - 0.0 - - - - - - -
24/10:30am 20.5 NE 7 9 1019.3 - 0.2 Fine Partly cloudy 40 - - - -
24/10:00am 18.9 NNE 7 9 1019.8 - 0.2 - - - - - - -
24/09:30am 17.0 NNE 7 10 1019.5 - 0.2 - - - - - - -
24/09:00am 14.8 NNE 6 8 1019.6 - 0.2 - - - - - - -
24/08:30am 12.5 NNE 6 8 1018.8 - 0.2 - - - - - - -
24/08:00am 11.6 NNE 6 8 1018.8 - 0.0 - - - - - - -
24/07:30am 11.6 NNE 6 9 1018.1 - 0.0 - - - - - - -
24/07:00am 11.9 NNE 7 10 1017.9 - 0.0 - - - - - - -
24/06:30am 12.3 NNE 7 9 1017.6 - 0.0 - - - - - - -
24/06:00am 11.3 NNE 6 7 1018.0 - 0.0 - - - - - - -
24/05:30am 11.6 NNE 6 7 1017.4 - 0.0 - - - - - - -
24/05:00am 11.2 NNE 6 7 1017.5 - 0.0 - - - - - - -
24/04:30am 11.1 NNE 6 7 1017.2 - 0.0 - - - - - - -
24/04:00am 11.4 NNE 6 7 1017.5 - 0.0 - - - - - - -
24/03:30am 11.6 NNE 6 7 1017.3 - 0.0 - - - - - - -
24/03:00am 12.1 NNE 6 7 1017.7 - 0.0 - - - - - - -
24/02:30am 12.5 NNE 6 8 1017.6 - 0.0 - - - - - - -
24/02:00am 12.3 NNE 6 7 1018.0 - 0.0 - - - - - - -
24/01:30am 13.1 NE 6 8 1017.8 - 0.0 - - - - - - -
24/01:00am 12.6 NE 6 7 1018.0 - 0.0 - - - - - - -
24/12:30am 12.6 NE 6 6 1017.9 - 0.0 - - - - - - -
24/12:00am 13.2 ENE 4 5 1018.5 - 0.0 - - - - - - -
 
Date/Time
CST
Temp

°C
Wind Pressure Rain
since 9am
mm
Weather Cloud Vis
km
Sea
Height
m
Swell
Dir
 
Speed
knots
Gust
knots
hPa Trend Height
m
Period
s
Dir
23/11:30pm 14.3 E 4 5 1018.6 - 0.0 - - - - - - -
23/11:00pm 15.0 ESE 4 4 1018.9 - 0.0 - - - - - - -
23/10:30pm 15.6 ESE 5 6 1018.6 - 0.0 - - - - - - -
23/10:00pm 16.5 SE 5 6 1018.6 - 0.0 - - - - - - -
23/09:30pm 16.5 ESE 5 5 1018.1 - 0.0 - - - - - - -
23/09:00pm 17.0 SE 5 6 1018.1 - 0.0 - - - - - - -
23/08:30pm 17.5 ESE 5 7 1017.7 - 0.0 - - - - - - -
23/08:00pm 17.6 ESE 5 7 1017.6 - 0.0 - - - - - - -
23/07:30pm 17.4 ESE 5 6 1017.2 - 0.0 - - - - - - -
23/07:00pm 17.8 SE 6 7 1017.1 - 0.0 - - - - - - -
23/06:30pm 18.0 SE 5 6 1016.4 - 0.0 - - - - - - -
23/06:00pm 18.8 ESE 6 9 1016.1 - 0.0 - - - - - - -
23/05:30pm 19.7 ESE 7 10 1015.7 - 0.0 - - - - - - -
23/05:00pm 20.7 ESE 8 14 1015.6 - 0.0 - - - - - - -
23/04:30pm 21.8 SE 8 12 1015.5 - 0.0 Fine Partly cloudy 40 - - - -
23/04:00pm 22.0 SE 9 12 1015.7 - 0.0 - - - - - - -
23/03:30pm 22.6 SE 8 11 1015.4 - 0.0 - - - - - - -
23/03:00pm 23.5 SSE 9 13 1015.7 - 0.0 - - - - - - -
23/02:30pm 22.6 SE 8 11 1015.6 - 0.0 - - - - - - -
23/02:00pm 22.9 SSE 8 12 1015.9 - 0.0 - - - - - - -
23/01:30pm 22.9 SE 9 11 1016.1 - 0.0 - - - - - - -
23/01:00pm 23.3 SE 6 9 1016.8 - 0.0 - - - - - - -
23/12:30pm 23.8 NNW 5 9 1017.2 - 0.0 - - - - - - -
23/12:00pm 22.9 N 4 9 1018.0 - 0.0 - - - - - - -
23/11:30am 22.2 N 7 10 1018.0 - 0.0 - - - - - - -
23/11:00am 21.8 N 7 11 1018.6 - 0.0 - - - - - - -
23/10:30am 20.6 N 8 11 1018.5 - 0.2 Fine Clear 40 - - - -
23/10:00am 19.0 N 8 11 1018.9 - 0.2 - - - - - - -
23/09:30am 17.3 N 7 10 1018.9 - 0.2 - - - - - - -
23/09:00am 14.1 N 7 10 1019.1 - 0.2 - - - - - - -
23/08:30am 12.0 N 6 8 1018.7 - 0.2 - - - - - - -
23/08:00am 10.8 N 5 7 1018.8 - 0.2 - - - - - - -
23/07:30am 10.3 N 6 7 1018.3 - 0.2 Recent precip. - - - - - -
23/07:00am 10.4 N 6 7 1018.7 - 0.0 - - - - - - -
23/06:30am 10.6 N 6 7 1018.6 - 0.0 - - - - - - -
23/06:00am 10.7 N 6 6 1018.9 - 0.0 - - - - - - -
23/05:30am 11.0 N 6 6 1018.6 - 0.0 - - - - - - -
23/05:00am 10.8 N 6 6 1018.6 - 0.0 - - - - - - -
23/04:30am 11.1 N 6 6 1018.3 - 0.0 - - - - - - -
23/04:00am 11.0 N 6 7 1018.5 - 0.0 - - - - - - -
23/03:30am 11.3 N 6 6 1018.3 - 0.0 - - - - - - -
23/03:00am 11.6 NNE 5 6 1018.6 - 0.0 - - - - - - -
23/02:30am 11.4 NNE 5 6 1018.6 - 0.0 - - - - - - -
23/02:00am 11.6 NNE 5 6 1019.1 - 0.0 - - - - - - -
23/01:30am 11.9 NNE 5 6 1018.9 - 0.0 - - - - - - -
23/01:00am 12.4 NNE 5 6 1019.3 - 0.0 - - - - - - -
23/12:30am 12.2 NNE 5 6 1019.0 - 0.0 - - - - - - -
23/12:00am 12.1 NNE 5 6 1019.7 - 0.0 - - - - - - -
 
Date/Time
CST
Temp

°C
Wind Pressure Rain
since 9am
mm
Weather Cloud Vis
km
Sea
Height
m
Swell
Dir
 
Speed
knots
Gust
knots
hPa Trend Height
m
Period
s
Dir
22/11:30pm 12.5 NNE 5 6 1019.6 - 0.0 - - - - - - -
22/11:00pm 12.7 NE 5 6 1020.0 - 0.0 - - - - - - -
22/10:30pm 13.5 ENE 5 5 1019.8 - 0.0 - - - - - - -
22/10:00pm 14.4 E 5 6 1020.1 - 0.0 - - - - - - -
22/09:30pm 14.9 E 5 5 1019.9 - 0.0 - - - - - - -
22/09:00pm 15.4 ESE 5 5 1020.2 - 0.0 - - - - - - -
22/08:30pm 15.4 ESE 5 5 1019.8 - 0.0 - - - - - - -
22/08:00pm 15.8 ESE 4 5 1020.0 - 0.0 - - - - - - -
22/07:30pm 16.3 SE 4 5 1019.6 - 0.0 - - - - - - -
22/07:00pm 16.5 SE 4 5 1019.5 - 0.0 - - - - - - -
22/06:30pm 17.5 SSE 5 7 1019.0 - 0.0 - - - - - - -
22/06:00pm 18.4 SSE 6 8 1019.2 - 0.0 - - - - - - -
22/05:30pm 19.2 SE 7 9 1018.7 - 0.0 - - - - - - -
22/05:00pm 19.9 SE 7 10 1018.8 - 0.0 - - - - - - -
22/04:30pm 20.4 SE 7 10 1018.6 - 0.0 Fine Mostly clear 40 - - - -
22/04:00pm 20.5 ESE 7 10 1018.7 - 0.0 - - - - - - -
22/03:30pm 20.7 SE 7 11 1018.6 - 0.0 - - - - - - -
22/03:00pm 20.5 ESE 8 12 1018.9 - 0.0 - - - - - - -
22/02:30pm 20.8 SE 8 12 1018.6 - 0.0 - - - - - - -
22/02:00pm 20.2 SE 8 12 1019.2 - 0.0 - - - - - - -
22/01:30pm 20.2 ESE 7 10 1019.1 - 0.0 - - - - - - -
22/01:00pm 20.0 SE 8 13 1020.0 - 0.0 - - - - - - -
22/12:30pm 19.6 SE 7 12 1020.1 - 0.0 - - - - - - -
22/12:00pm 20.6 SE 7 11 1020.5 - 0.0 - - - - - - -
22/11:30am 19.7 S 6 8 1020.6 - 0.0 - - - - - - -
22/11:00am 19.0 SSW 5 7 1020.9 - 0.0 - - - - - - -
22/10:30am 19.8 S 4 6 1020.7 - 0.2 Fine Partly cloudy 40 - - - -
22/10:00am 19.0 WSW 3 6 1020.9 - 0.2 - - - - - - -
22/09:30am 18.0 SW 5 7 1020.7 - 0.2 - - - - - - -
22/09:00am 16.8 W 5 8 1020.6 - 0.2 - - - - - - -
22/08:30am 15.2 NW 4 5 1020.0 - 0.2 - - - - - - -
22/08:00am 13.6 W 4 7 1019.9 - 0.2 - - - - - - -
22/07:30am 13.1 W 5 6 1019.2 - 0.2 - - - - - - -
22/07:00am 13.2 W 5 7 1019.3 - 0.2 - - - - - - -
22/06:30am 13.9 W 5 7 1018.8 - 0.2 - - - - - - -
22/06:00am 14.3 W 5 7 1019.1 - 0.2 - - - - - - -
22/05:30am 14.4 W 6 7 1018.5 - 0.2 - - - - - - -
22/05:00am 14.7 W 5 7 1018.6 - 0.0 - - - - - - -
22/04:30am 14.7 W 6 8 1018.0 - 0.0 - - - - - - -
22/04:00am 14.7 W 6 8 1018.1 - 0.0 - - - - - - -
22/03:30am 14.8 WSW 6 8 1018.2 - 0.0 - - - - - - -
22/03:00am 15.2 WSW 5 7 1018.4 - 0.0 - - - - - - -
22/02:30am 15.3 W 5 8 1018.1 - 0.0 - - - - - - -
22/02:00am 15.7 W 6 8 1018.3 - 0.0 - - - - - - -
22/01:30am 16.1 W 6 7 1018.0 - 0.0 - - - - - - -
22/01:00am 16.2 W 6 7 1018.1 - 0.0 - - - - - - -
22/12:30am 16.3 W 7 10 1017.9 - 0.0 - - - - - - -
22/12:00am 16.2 SW 4 7 1017.9 - 0.0 - - - - - - -
 
Date/Time
CST
Temp

°C
Wind Pressure Rain
since 9am
mm
Weather Cloud Vis
km
Sea
Height
m
Swell
Dir
 
Speed
knots
Gust
knots
hPa Trend Height
m
Period
s
Dir
21/11:30pm 16.4 SW 5 6 1017.7 - 0.0 - - - - - - -
21/11:00pm 16.3 SW 5 7 1018.0 - 0.0 - - - - - - -
21/10:30pm 16.4 SSW 5 8 1017.7 - 0.0 - - - - - - -
21/10:00pm 16.7 SSW 5 8 1017.7 - 0.0 - - - - - - -
21/09:30pm 17.1 SSW 6 9 1017.2 - 0.0 - - - - - - -
21/09:00pm 17.8 S 7 10 1017.1 - 0.0 - - - - - - -
21/08:30pm 17.6 SSW 7 11 1016.5 - 0.0 - - - - - - -
21/08:00pm 17.4 SSW 7 11 1016.5 - 0.0 - - - - - - -
21/07:30pm 17.9 SSW 9 13 1016.0 - 0.0 - - - - - - -
21/07:00pm 17.9 SSW 7 10 1015.6 - 0.0 - - - - - - -
21/06:30pm 18.4 SSW 9 14 1015.0 - 0.0 - - - - - - -
21/06:00pm 18.8 SSW 8 13 1014.8 - 0.0 - - - - - - -
21/05:30pm 19.5 SSW 9 15 1014.2 - 0.0 - - - - - - -
21/05:00pm 20.1 SSW 9 15 1014.1 - 0.0 - - - - - - -
21/04:30pm 20.7 S 9 17 1013.7 - 0.0 Fine Mostly clear 40 - - - -
21/04:00pm 20.3 SSW 10 17 1013.6 - 0.0 - - - - - - -
21/03:30pm 20.8 S 11 17 1013.3 - 0.0 - - - - - - -
21/03:00pm 20.8 SSW 9 15 1013.2 - 0.0 - - - - - - -
21/02:30pm 21.3 SSW 12 18 1012.7 - 0.0 - - - - - - -
21/02:00pm 20.7 SSW 11 15 1012.9 - 0.0 - - - - - - -
21/01:30pm 21.1 SSW 11 18 1012.5 - 0.0 - - - - - - -

Other Formats:

Comma delimited format used in spreadsheet applications
http://www.bom.gov.au/fwo/IDS60701/IDS60701.94647.axf

JavaScript Object Notation format (JSON) in row-major order
http://www.bom.gov.au/fwo/IDS60701/IDS60701.94647.json